<?xml version="1.0" encoding="UTF-8" standalone="no" ?>
<gpx xmlns="http://www.topografix.com/GPX/1/1" xmlns:xsi="http://www.w3.org/2001/XMLSchema-instance" xsi:schemaLocation="http://www.topografix.com/GPX/1/1 http://www.topografix.com/GPX/1/1/gpx.xsd" version="1.1" creator="VisuGPX - https://www.visugpx.com">
  <metadata>
    <name>3eme sortie VTT, Christophe, Fabien, Lionel, Arnaud</name>
    <desc><![CDATA[une ptite gerbouille pour C ]]></desc>
  </metadata>
  <trk>
    <name><![CDATA[vtt3]]></name>
    <trkseg>
      <trkpt lat="44.33206" lon="4.62492">
        <ele>235</ele>
        <time>2013-07-14T08:54:42Z</time>
      </trkpt>
      <trkpt lat="44.33204" lon="4.62498">
        <ele>230</ele>
        <time>2013-07-14T08:54:55Z</time>
      </trkpt>
      <trkpt lat="44.332" lon="4.62501">
        <ele>226</ele>
        <time>2013-07-14T08:55:22Z</time>
      </trkpt>
      <trkpt lat="44.33199" lon="4.62501">
        <ele>225</ele>
        <time>2013-07-14T08:55:27Z</time>
      </trkpt>
      <trkpt lat="44.332" lon="4.62501">
        <ele>226</ele>
        <time>2013-07-14T08:55:32Z</time>
      </trkpt>
      <trkpt lat="44.3321" lon="4.62495">
        <ele>229</ele>
        <time>2013-07-14T08:55:46Z</time>
      </trkpt>
      <trkpt lat="44.33216" lon="4.62489">
        <ele>229</ele>
        <time>2013-07-14T08:55:52Z</time>
      </trkpt>
      <trkpt lat="44.33218" lon="4.62468">
        <ele>231</ele>
        <time>2013-07-14T08:56:02Z</time>
      </trkpt>
      <trkpt lat="44.33217" lon="4.62433">
        <ele>231</ele>
        <time>2013-07-14T08:56:13Z</time>
      </trkpt>
      <trkpt lat="44.33221" lon="4.62414">
        <ele>230</ele>
        <time>2013-07-14T08:56:20Z</time>
      </trkpt>
      <trkpt lat="44.33293" lon="4.62437">
        <ele>227</ele>
        <time>2013-07-14T08:56:51Z</time>
      </trkpt>
      <trkpt lat="44.33314" lon="4.62447">
        <ele>228</ele>
        <time>2013-07-14T08:56:59Z</time>
      </trkpt>
      <trkpt lat="44.3342" lon="4.6249">
        <ele>230</ele>
        <time>2013-07-14T08:57:41Z</time>
      </trkpt>
      <trkpt lat="44.33431" lon="4.62502">
        <ele>231</ele>
        <time>2013-07-14T08:57:47Z</time>
      </trkpt>
      <trkpt lat="44.33428" lon="4.62544">
        <ele>232</ele>
        <time>2013-07-14T08:57:59Z</time>
      </trkpt>
      <trkpt lat="44.33438" lon="4.62565">
        <ele>232</ele>
        <time>2013-07-14T08:58:06Z</time>
      </trkpt>
      <trkpt lat="44.33482" lon="4.62582">
        <ele>230</ele>
        <time>2013-07-14T08:58:23Z</time>
      </trkpt>
      <trkpt lat="44.33492" lon="4.62597">
        <ele>230</ele>
        <time>2013-07-14T08:58:30Z</time>
      </trkpt>
      <trkpt lat="44.33497" lon="4.62639">
        <ele>230</ele>
        <time>2013-07-14T08:58:42Z</time>
      </trkpt>
      <trkpt lat="44.33504" lon="4.62652">
        <ele>230</ele>
        <time>2013-07-14T08:58:47Z</time>
      </trkpt>
      <trkpt lat="44.33601" lon="4.62683">
        <ele>229</ele>
        <time>2013-07-14T08:59:22Z</time>
      </trkpt>
      <trkpt lat="44.33621" lon="4.62689">
        <ele>229</ele>
        <time>2013-07-14T08:59:30Z</time>
      </trkpt>
      <trkpt lat="44.33702" lon="4.6271">
        <ele>230</ele>
        <time>2013-07-14T09:00:03Z</time>
      </trkpt>
      <trkpt lat="44.33708" lon="4.62703">
        <ele>230</ele>
        <time>2013-07-14T09:00:09Z</time>
      </trkpt>
      <trkpt lat="44.33738" lon="4.62588">
        <ele>229</ele>
        <time>2013-07-14T09:00:46Z</time>
      </trkpt>
      <trkpt lat="44.3375" lon="4.62517">
        <ele>230</ele>
        <time>2013-07-14T09:01:10Z</time>
      </trkpt>
      <trkpt lat="44.33716" lon="4.62493">
        <ele>228</ele>
        <time>2013-07-14T09:01:30Z</time>
      </trkpt>
      <trkpt lat="44.3372" lon="4.6241">
        <ele>229</ele>
        <time>2013-07-14T09:01:59Z</time>
      </trkpt>
      <trkpt lat="44.33722" lon="4.62401">
        <ele>229</ele>
        <time>2013-07-14T09:02:05Z</time>
      </trkpt>
      <trkpt lat="44.33721" lon="4.62399">
        <ele>228</ele>
        <time>2013-07-14T09:02:11Z</time>
      </trkpt>
      <trkpt lat="44.3372" lon="4.624">
        <ele>228</ele>
        <time>2013-07-14T09:02:16Z</time>
      </trkpt>
      <trkpt lat="44.33721" lon="4.624">
        <ele>228</ele>
        <time>2013-07-14T09:02:21Z</time>
      </trkpt>
      <trkpt lat="44.33725" lon="4.62398">
        <ele>228</ele>
        <time>2013-07-14T09:02:27Z</time>
      </trkpt>
      <trkpt lat="44.33838" lon="4.62435">
        <ele>231</ele>
        <time>2013-07-14T09:03:18Z</time>
      </trkpt>
      <trkpt lat="44.33875" lon="4.62449">
        <ele>230</ele>
        <time>2013-07-14T09:03:33Z</time>
      </trkpt>
      <trkpt lat="44.33911" lon="4.62438">
        <ele>231</ele>
        <time>2013-07-14T09:03:47Z</time>
      </trkpt>
      <trkpt lat="44.33925" lon="4.62414">
        <ele>233</ele>
        <time>2013-07-14T09:03:53Z</time>
      </trkpt>
      <trkpt lat="44.3393" lon="4.62377">
        <ele>235</ele>
        <time>2013-07-14T09:03:59Z</time>
      </trkpt>
      <trkpt lat="44.33932" lon="4.62284">
        <ele>238</ele>
        <time>2013-07-14T09:04:16Z</time>
      </trkpt>
      <trkpt lat="44.33941" lon="4.62238">
        <ele>238</ele>
        <time>2013-07-14T09:04:31Z</time>
      </trkpt>
      <trkpt lat="44.33949" lon="4.62215">
        <ele>239</ele>
        <time>2013-07-14T09:04:40Z</time>
      </trkpt>
      <trkpt lat="44.33978" lon="4.62154">
        <ele>244</ele>
        <time>2013-07-14T09:05:03Z</time>
      </trkpt>
      <trkpt lat="44.34017" lon="4.6213">
        <ele>241</ele>
        <time>2013-07-14T09:05:21Z</time>
      </trkpt>
      <trkpt lat="44.34017" lon="4.62115">
        <ele>241</ele>
        <time>2013-07-14T09:05:26Z</time>
      </trkpt>
      <trkpt lat="44.34015" lon="4.62097">
        <ele>241</ele>
        <time>2013-07-14T09:05:32Z</time>
      </trkpt>
      <trkpt lat="44.34011" lon="4.62078">
        <ele>242</ele>
        <time>2013-07-14T09:05:37Z</time>
      </trkpt>
      <trkpt lat="44.34004" lon="4.62002">
        <ele>245</ele>
        <time>2013-07-14T09:05:52Z</time>
      </trkpt>
      <trkpt lat="44.33992" lon="4.61937">
        <ele>249</ele>
        <time>2013-07-14T09:06:09Z</time>
      </trkpt>
      <trkpt lat="44.34" lon="4.6185">
        <ele>249</ele>
        <time>2013-07-14T09:06:26Z</time>
      </trkpt>
      <trkpt lat="44.34005" lon="4.61818">
        <ele>248</ele>
        <time>2013-07-14T09:06:32Z</time>
      </trkpt>
      <trkpt lat="44.34089" lon="4.6173">
        <ele>243</ele>
        <time>2013-07-14T09:06:51Z</time>
      </trkpt>
      <trkpt lat="44.34083" lon="4.61599">
        <ele>239</ele>
        <time>2013-07-14T09:07:06Z</time>
      </trkpt>
      <trkpt lat="44.34054" lon="4.61523">
        <ele>234</ele>
        <time>2013-07-14T09:07:12Z</time>
      </trkpt>
      <trkpt lat="44.33905" lon="4.61134">
        <ele>219</ele>
        <time>2013-07-14T09:07:48Z</time>
      </trkpt>
      <trkpt lat="44.33872" lon="4.61087">
        <ele>216</ele>
        <time>2013-07-14T09:07:56Z</time>
      </trkpt>
      <trkpt lat="44.3384" lon="4.61084">
        <ele>218</ele>
        <time>2013-07-14T09:08:02Z</time>
      </trkpt>
      <trkpt lat="44.33814" lon="4.61078">
        <ele>217</ele>
        <time>2013-07-14T09:08:10Z</time>
      </trkpt>
      <trkpt lat="44.33801" lon="4.61068">
        <ele>218</ele>
        <time>2013-07-14T09:08:16Z</time>
      </trkpt>
      <trkpt lat="44.33803" lon="4.61045">
        <ele>219</ele>
        <time>2013-07-14T09:08:22Z</time>
      </trkpt>
      <trkpt lat="44.3382" lon="4.61024">
        <ele>219</ele>
        <time>2013-07-14T09:08:29Z</time>
      </trkpt>
      <trkpt lat="44.33884" lon="4.60882">
        <ele>217</ele>
        <time>2013-07-14T09:08:47Z</time>
      </trkpt>
      <trkpt lat="44.33939" lon="4.60817">
        <ele>216</ele>
        <time>2013-07-14T09:09:00Z</time>
      </trkpt>
      <trkpt lat="44.33947" lon="4.60787">
        <ele>216</ele>
        <time>2013-07-14T09:09:07Z</time>
      </trkpt>
      <trkpt lat="44.33929" lon="4.60748">
        <ele>216</ele>
        <time>2013-07-14T09:09:16Z</time>
      </trkpt>
      <trkpt lat="44.33881" lon="4.60603">
        <ele>211</ele>
        <time>2013-07-14T09:09:40Z</time>
      </trkpt>
      <trkpt lat="44.33825" lon="4.60577">
        <ele>207</ele>
        <time>2013-07-14T09:09:48Z</time>
      </trkpt>
      <trkpt lat="44.33593" lon="4.6043">
        <ele>194</ele>
        <time>2013-07-14T09:10:16Z</time>
      </trkpt>
      <trkpt lat="44.33495" lon="4.604">
        <ele>192</ele>
        <time>2013-07-14T09:10:28Z</time>
      </trkpt>
      <trkpt lat="44.33393" lon="4.60308">
        <ele>185</ele>
        <time>2013-07-14T09:10:44Z</time>
      </trkpt>
      <trkpt lat="44.3342" lon="4.60179">
        <ele>190</ele>
        <time>2013-07-14T09:11:06Z</time>
      </trkpt>
      <trkpt lat="44.3342" lon="4.60144">
        <ele>192</ele>
        <time>2013-07-14T09:11:12Z</time>
      </trkpt>
      <trkpt lat="44.33419" lon="4.60113">
        <ele>193</ele>
        <time>2013-07-14T09:11:18Z</time>
      </trkpt>
      <trkpt lat="44.33421" lon="4.60061">
        <ele>195</ele>
        <time>2013-07-14T09:11:29Z</time>
      </trkpt>
      <trkpt lat="44.33403" lon="4.5999">
        <ele>195</ele>
        <time>2013-07-14T09:11:46Z</time>
      </trkpt>
      <trkpt lat="44.33357" lon="4.59904">
        <ele>195</ele>
        <time>2013-07-14T09:12:11Z</time>
      </trkpt>
      <trkpt lat="44.33364" lon="4.5987">
        <ele>195</ele>
        <time>2013-07-14T09:12:17Z</time>
      </trkpt>
      <trkpt lat="44.33401" lon="4.5974">
        <ele>197</ele>
        <time>2013-07-14T09:12:42Z</time>
      </trkpt>
      <trkpt lat="44.33413" lon="4.5969">
        <ele>199</ele>
        <time>2013-07-14T09:12:54Z</time>
      </trkpt>
      <trkpt lat="44.33429" lon="4.59615">
        <ele>202</ele>
        <time>2013-07-14T09:13:16Z</time>
      </trkpt>
      <trkpt lat="44.33437" lon="4.59548">
        <ele>207</ele>
        <time>2013-07-14T09:13:38Z</time>
      </trkpt>
      <trkpt lat="44.3345" lon="4.59493">
        <ele>211</ele>
        <time>2013-07-14T09:13:55Z</time>
      </trkpt>
      <trkpt lat="44.33455" lon="4.59307">
        <ele>219</ele>
        <time>2013-07-14T09:14:47Z</time>
      </trkpt>
      <trkpt lat="44.33456" lon="4.5928">
        <ele>220</ele>
        <time>2013-07-14T09:14:55Z</time>
      </trkpt>
      <trkpt lat="44.33456" lon="4.59263">
        <ele>220</ele>
        <time>2013-07-14T09:15:00Z</time>
      </trkpt>
      <trkpt lat="44.33465" lon="4.59204">
        <ele>224</ele>
        <time>2013-07-14T09:15:18Z</time>
      </trkpt>
      <trkpt lat="44.33472" lon="4.59172">
        <ele>227</ele>
        <time>2013-07-14T09:15:29Z</time>
      </trkpt>
      <trkpt lat="44.33489" lon="4.59127">
        <ele>229</ele>
        <time>2013-07-14T09:15:46Z</time>
      </trkpt>
      <trkpt lat="44.33498" lon="4.5911">
        <ele>229</ele>
        <time>2013-07-14T09:15:52Z</time>
      </trkpt>
      <trkpt lat="44.33545" lon="4.59036">
        <ele>237</ele>
        <time>2013-07-14T09:16:28Z</time>
      </trkpt>
      <trkpt lat="44.3355" lon="4.59023">
        <ele>238</ele>
        <time>2013-07-14T09:16:33Z</time>
      </trkpt>
      <trkpt lat="44.33553" lon="4.58853">
        <ele>239</ele>
        <time>2013-07-14T09:17:19Z</time>
      </trkpt>
      <trkpt lat="44.33552" lon="4.58817">
        <ele>238</ele>
        <time>2013-07-14T09:17:25Z</time>
      </trkpt>
      <trkpt lat="44.33552" lon="4.58778">
        <ele>238</ele>
        <time>2013-07-14T09:17:31Z</time>
      </trkpt>
      <trkpt lat="44.33544" lon="4.58709">
        <ele>236</ele>
        <time>2013-07-14T09:17:44Z</time>
      </trkpt>
      <trkpt lat="44.33542" lon="4.58689">
        <ele>236</ele>
        <time>2013-07-14T09:17:49Z</time>
      </trkpt>
      <trkpt lat="44.33529" lon="4.58574">
        <ele>239</ele>
        <time>2013-07-14T09:18:19Z</time>
      </trkpt>
      <trkpt lat="44.33515" lon="4.58476">
        <ele>241</ele>
        <time>2013-07-14T09:18:45Z</time>
      </trkpt>
      <trkpt lat="44.33507" lon="4.58452">
        <ele>242</ele>
        <time>2013-07-14T09:18:52Z</time>
      </trkpt>
      <trkpt lat="44.33472" lon="4.58367">
        <ele>244</ele>
        <time>2013-07-14T09:19:15Z</time>
      </trkpt>
      <trkpt lat="44.33431" lon="4.5834">
        <ele>244</ele>
        <time>2013-07-14T09:19:34Z</time>
      </trkpt>
      <trkpt lat="44.33368" lon="4.58353">
        <ele>245</ele>
        <time>2013-07-14T09:19:52Z</time>
      </trkpt>
      <trkpt lat="44.33333" lon="4.58368">
        <ele>245</ele>
        <time>2013-07-14T09:19:59Z</time>
      </trkpt>
      <trkpt lat="44.33165" lon="4.58474">
        <ele>240</ele>
        <time>2013-07-14T09:20:34Z</time>
      </trkpt>
      <trkpt lat="44.33071" lon="4.58498">
        <ele>238</ele>
        <time>2013-07-14T09:20:50Z</time>
      </trkpt>
      <trkpt lat="44.33002" lon="4.58507">
        <ele>237</ele>
        <time>2013-07-14T09:21:02Z</time>
      </trkpt>
      <trkpt lat="44.32928" lon="4.58533">
        <ele>234</ele>
        <time>2013-07-14T09:21:15Z</time>
      </trkpt>
      <trkpt lat="44.32896" lon="4.58545">
        <ele>234</ele>
        <time>2013-07-14T09:21:22Z</time>
      </trkpt>
      <trkpt lat="44.32836" lon="4.58558">
        <ele>235</ele>
        <time>2013-07-14T09:21:35Z</time>
      </trkpt>
      <trkpt lat="44.32707" lon="4.586">
        <ele>233</ele>
        <time>2013-07-14T09:21:53Z</time>
      </trkpt>
      <trkpt lat="44.3253" lon="4.58737">
        <ele>228</ele>
        <time>2013-07-14T09:22:27Z</time>
      </trkpt>
      <trkpt lat="44.32506" lon="4.58756">
        <ele>227</ele>
        <time>2013-07-14T09:22:32Z</time>
      </trkpt>
      <trkpt lat="44.32357" lon="4.58784">
        <ele>217</ele>
        <time>2013-07-14T09:22:49Z</time>
      </trkpt>
      <trkpt lat="44.32297" lon="4.58786">
        <ele>214</ele>
        <time>2013-07-14T09:22:55Z</time>
      </trkpt>
      <trkpt lat="44.32236" lon="4.58804">
        <ele>210</ele>
        <time>2013-07-14T09:23:02Z</time>
      </trkpt>
      <trkpt lat="44.32082" lon="4.58884">
        <ele>196</ele>
        <time>2013-07-14T09:23:20Z</time>
      </trkpt>
      <trkpt lat="44.32023" lon="4.58889">
        <ele>189</ele>
        <time>2013-07-14T09:23:28Z</time>
      </trkpt>
      <trkpt lat="44.31885" lon="4.58996">
        <ele>181</ele>
        <time>2013-07-14T09:23:48Z</time>
      </trkpt>
      <trkpt lat="44.31851" lon="4.59005">
        <ele>181</ele>
        <time>2013-07-14T09:23:54Z</time>
      </trkpt>
      <trkpt lat="44.31771" lon="4.58987">
        <ele>178</ele>
        <time>2013-07-14T09:24:05Z</time>
      </trkpt>
      <trkpt lat="44.31742" lon="4.59027">
        <ele>177</ele>
        <time>2013-07-14T09:24:11Z</time>
      </trkpt>
      <trkpt lat="44.31714" lon="4.59047">
        <ele>176</ele>
        <time>2013-07-14T09:24:20Z</time>
      </trkpt>
      <trkpt lat="44.31704" lon="4.59027">
        <ele>176</ele>
        <time>2013-07-14T09:24:26Z</time>
      </trkpt>
      <trkpt lat="44.31703" lon="4.58992">
        <ele>175</ele>
        <time>2013-07-14T09:24:35Z</time>
      </trkpt>
      <trkpt lat="44.3172" lon="4.58964">
        <ele>173</ele>
        <time>2013-07-14T09:24:42Z</time>
      </trkpt>
      <trkpt lat="44.317" lon="4.58817">
        <ele>170</ele>
        <time>2013-07-14T09:25:03Z</time>
      </trkpt>
      <trkpt lat="44.31694" lon="4.58797">
        <ele>171</ele>
        <time>2013-07-14T09:25:08Z</time>
      </trkpt>
      <trkpt lat="44.31679" lon="4.58758">
        <ele>173</ele>
        <time>2013-07-14T09:25:20Z</time>
      </trkpt>
      <trkpt lat="44.31638" lon="4.58681">
        <ele>177</ele>
        <time>2013-07-14T09:25:50Z</time>
      </trkpt>
      <trkpt lat="44.31626" lon="4.58664">
        <ele>177</ele>
        <time>2013-07-14T09:25:56Z</time>
      </trkpt>
      <trkpt lat="44.31615" lon="4.58659">
        <ele>177</ele>
        <time>2013-07-14T09:26:02Z</time>
      </trkpt>
      <trkpt lat="44.31594" lon="4.58654">
        <ele>179</ele>
        <time>2013-07-14T09:26:07Z</time>
      </trkpt>
      <trkpt lat="44.31561" lon="4.58632">
        <ele>179</ele>
        <time>2013-07-14T09:26:29Z</time>
      </trkpt>
      <trkpt lat="44.31552" lon="4.58631">
        <ele>181</ele>
        <time>2013-07-14T09:26:35Z</time>
      </trkpt>
      <trkpt lat="44.31548" lon="4.58632">
        <ele>180</ele>
        <time>2013-07-14T09:26:40Z</time>
      </trkpt>
      <trkpt lat="44.31541" lon="4.5862">
        <ele>182</ele>
        <time>2013-07-14T09:26:53Z</time>
      </trkpt>
      <trkpt lat="44.315" lon="4.58549">
        <ele>187</ele>
        <time>2013-07-14T09:27:37Z</time>
      </trkpt>
      <trkpt lat="44.31496" lon="4.58539">
        <ele>188</ele>
        <time>2013-07-14T09:27:42Z</time>
      </trkpt>
      <trkpt lat="44.31472" lon="4.58493">
        <ele>192</ele>
        <time>2013-07-14T09:28:09Z</time>
      </trkpt>
      <trkpt lat="44.31454" lon="4.58475">
        <ele>195</ele>
        <time>2013-07-14T09:28:26Z</time>
      </trkpt>
      <trkpt lat="44.31451" lon="4.58472">
        <ele>196</ele>
        <time>2013-07-14T09:28:31Z</time>
      </trkpt>
      <trkpt lat="44.31448" lon="4.58472">
        <ele>197</ele>
        <time>2013-07-14T09:28:37Z</time>
      </trkpt>
      <trkpt lat="44.31433" lon="4.58434">
        <ele>199</ele>
        <time>2013-07-14T09:28:57Z</time>
      </trkpt>
      <trkpt lat="44.31417" lon="4.58406">
        <ele>202</ele>
        <time>2013-07-14T09:29:13Z</time>
      </trkpt>
      <trkpt lat="44.31391" lon="4.58349">
        <ele>203</ele>
        <time>2013-07-14T09:29:36Z</time>
      </trkpt>
      <trkpt lat="44.31375" lon="4.58291">
        <ele>205</ele>
        <time>2013-07-14T09:29:59Z</time>
      </trkpt>
      <trkpt lat="44.31349" lon="4.58223">
        <ele>207</ele>
        <time>2013-07-14T09:30:13Z</time>
      </trkpt>
      <trkpt lat="44.31342" lon="4.58204">
        <ele>209</ele>
        <time>2013-07-14T09:30:18Z</time>
      </trkpt>
      <trkpt lat="44.31332" lon="4.58185">
        <ele>210</ele>
        <time>2013-07-14T09:30:24Z</time>
      </trkpt>
      <trkpt lat="44.31325" lon="4.58173">
        <ele>211</ele>
        <time>2013-07-14T09:30:29Z</time>
      </trkpt>
      <trkpt lat="44.31317" lon="4.58161">
        <ele>212</ele>
        <time>2013-07-14T09:30:35Z</time>
      </trkpt>
      <trkpt lat="44.31314" lon="4.5815">
        <ele>213</ele>
        <time>2013-07-14T09:30:40Z</time>
      </trkpt>
      <trkpt lat="44.31309" lon="4.58147">
        <ele>215</ele>
        <time>2013-07-14T09:30:47Z</time>
      </trkpt>
      <trkpt lat="44.31309" lon="4.58147">
        <ele>216</ele>
        <time>2013-07-14T09:30:53Z</time>
      </trkpt>
      <trkpt lat="44.31309" lon="4.58136">
        <ele>216</ele>
        <time>2013-07-14T09:30:59Z</time>
      </trkpt>
      <trkpt lat="44.31309" lon="4.58126">
        <ele>217</ele>
        <time>2013-07-14T09:31:04Z</time>
      </trkpt>
      <trkpt lat="44.31304" lon="4.58117">
        <ele>217</ele>
        <time>2013-07-14T09:31:09Z</time>
      </trkpt>
      <trkpt lat="44.31305" lon="4.58102">
        <ele>217</ele>
        <time>2013-07-14T09:31:16Z</time>
      </trkpt>
      <trkpt lat="44.31305" lon="4.58093">
        <ele>217</ele>
        <time>2013-07-14T09:31:21Z</time>
      </trkpt>
      <trkpt lat="44.31304" lon="4.58087">
        <ele>217</ele>
        <time>2013-07-14T09:31:26Z</time>
      </trkpt>
      <trkpt lat="44.31303" lon="4.58088">
        <ele>218</ele>
        <time>2013-07-14T09:31:31Z</time>
      </trkpt>
      <trkpt lat="44.31303" lon="4.58091">
        <ele>219</ele>
        <time>2013-07-14T09:31:37Z</time>
      </trkpt>
      <trkpt lat="44.31303" lon="4.58092">
        <ele>220</ele>
        <time>2013-07-14T09:31:42Z</time>
      </trkpt>
      <trkpt lat="44.31304" lon="4.58091">
        <ele>220</ele>
        <time>2013-07-14T09:31:48Z</time>
      </trkpt>
      <trkpt lat="44.31305" lon="4.58089">
        <ele>219</ele>
        <time>2013-07-14T09:31:53Z</time>
      </trkpt>
      <trkpt lat="44.31307" lon="4.58087">
        <ele>219</ele>
        <time>2013-07-14T09:31:59Z</time>
      </trkpt>
      <trkpt lat="44.31307" lon="4.58089">
        <ele>217</ele>
        <time>2013-07-14T09:32:07Z</time>
      </trkpt>
      <trkpt lat="44.31306" lon="4.5809">
        <ele>217</ele>
        <time>2013-07-14T09:32:12Z</time>
      </trkpt>
      <trkpt lat="44.31304" lon="4.5809">
        <ele>216</ele>
        <time>2013-07-14T09:32:17Z</time>
      </trkpt>
      <trkpt lat="44.31308" lon="4.58087">
        <ele>217</ele>
        <time>2013-07-14T09:32:25Z</time>
      </trkpt>
      <trkpt lat="44.31306" lon="4.58089">
        <ele>218</ele>
        <time>2013-07-14T09:32:32Z</time>
      </trkpt>
      <trkpt lat="44.31306" lon="4.58088">
        <ele>219</ele>
        <time>2013-07-14T09:32:40Z</time>
      </trkpt>
      <trkpt lat="44.31304" lon="4.58089">
        <ele>220</ele>
        <time>2013-07-14T09:32:45Z</time>
      </trkpt>
      <trkpt lat="44.31304" lon="4.58089">
        <ele>220</ele>
        <time>2013-07-14T09:32:51Z</time>
      </trkpt>
      <trkpt lat="44.31303" lon="4.58089">
        <ele>220</ele>
        <time>2013-07-14T09:32:57Z</time>
      </trkpt>
      <trkpt lat="44.31303" lon="4.58089">
        <ele>219</ele>
        <time>2013-07-14T09:33:02Z</time>
      </trkpt>
      <trkpt lat="44.31303" lon="4.58089">
        <ele>219</ele>
        <time>2013-07-14T09:33:08Z</time>
      </trkpt>
      <trkpt lat="44.31302" lon="4.5809">
        <ele>220</ele>
        <time>2013-07-14T09:33:14Z</time>
      </trkpt>
      <trkpt lat="44.31304" lon="4.58089">
        <ele>220</ele>
        <time>2013-07-14T09:33:21Z</time>
      </trkpt>
      <trkpt lat="44.31304" lon="4.58089">
        <ele>219</ele>
        <time>2013-07-14T09:33:27Z</time>
      </trkpt>
      <trkpt lat="44.31301" lon="4.58089">
        <ele>219</ele>
        <time>2013-07-14T09:33:32Z</time>
      </trkpt>
      <trkpt lat="44.31303" lon="4.58089">
        <ele>218</ele>
        <time>2013-07-14T09:33:40Z</time>
      </trkpt>
      <trkpt lat="44.31303" lon="4.58089">
        <ele>218</ele>
        <time>2013-07-14T09:33:45Z</time>
      </trkpt>
      <trkpt lat="44.313" lon="4.5809">
        <ele>217</ele>
        <time>2013-07-14T09:33:51Z</time>
      </trkpt>
      <trkpt lat="44.31299" lon="4.5809">
        <ele>217</ele>
        <time>2013-07-14T09:33:56Z</time>
      </trkpt>
      <trkpt lat="44.313" lon="4.5809">
        <ele>217</ele>
        <time>2013-07-14T09:34:02Z</time>
      </trkpt>
      <trkpt lat="44.31299" lon="4.58093">
        <ele>217</ele>
        <time>2013-07-14T09:34:07Z</time>
      </trkpt>
      <trkpt lat="44.31299" lon="4.58095">
        <ele>217</ele>
        <time>2013-07-14T09:34:13Z</time>
      </trkpt>
      <trkpt lat="44.313" lon="4.58094">
        <ele>218</ele>
        <time>2013-07-14T09:34:18Z</time>
      </trkpt>
      <trkpt lat="44.31301" lon="4.58093">
        <ele>218</ele>
        <time>2013-07-14T09:34:23Z</time>
      </trkpt>
      <trkpt lat="44.31303" lon="4.58091">
        <ele>218</ele>
        <time>2013-07-14T09:34:28Z</time>
      </trkpt>
      <trkpt lat="44.31303" lon="4.58089">
        <ele>217</ele>
        <time>2013-07-14T09:34:34Z</time>
      </trkpt>
      <trkpt lat="44.31302" lon="4.58087">
        <ele>218</ele>
        <time>2013-07-14T09:34:39Z</time>
      </trkpt>
      <trkpt lat="44.31302" lon="4.58087">
        <ele>219</ele>
        <time>2013-07-14T09:34:46Z</time>
      </trkpt>
      <trkpt lat="44.31302" lon="4.58088">
        <ele>219</ele>
        <time>2013-07-14T09:34:52Z</time>
      </trkpt>
      <trkpt lat="44.31303" lon="4.58087">
        <ele>220</ele>
        <time>2013-07-14T09:34:58Z</time>
      </trkpt>
      <trkpt lat="44.31302" lon="4.58088">
        <ele>219</ele>
        <time>2013-07-14T09:35:03Z</time>
      </trkpt>
      <trkpt lat="44.31303" lon="4.58089">
        <ele>217</ele>
        <time>2013-07-14T09:35:08Z</time>
      </trkpt>
      <trkpt lat="44.31303" lon="4.5809">
        <ele>217</ele>
        <time>2013-07-14T09:35:13Z</time>
      </trkpt>
      <trkpt lat="44.31304" lon="4.5809">
        <ele>217</ele>
        <time>2013-07-14T09:35:21Z</time>
      </trkpt>
      <trkpt lat="44.31304" lon="4.58091">
        <ele>217</ele>
        <time>2013-07-14T09:35:27Z</time>
      </trkpt>
      <trkpt lat="44.31303" lon="4.58092">
        <ele>216</ele>
        <time>2013-07-14T09:35:32Z</time>
      </trkpt>
      <trkpt lat="44.31303" lon="4.58092">
        <ele>216</ele>
        <time>2013-07-14T09:35:39Z</time>
      </trkpt>
      <trkpt lat="44.31303" lon="4.58091">
        <ele>215</ele>
        <time>2013-07-14T09:35:45Z</time>
      </trkpt>
      <trkpt lat="44.31303" lon="4.58093">
        <ele>215</ele>
        <time>2013-07-14T09:35:51Z</time>
      </trkpt>
      <trkpt lat="44.31302" lon="4.58093">
        <ele>215</ele>
        <time>2013-07-14T09:35:56Z</time>
      </trkpt>
      <trkpt lat="44.31303" lon="4.58093">
        <ele>215</ele>
        <time>2013-07-14T09:36:01Z</time>
      </trkpt>
      <trkpt lat="44.31303" lon="4.58092">
        <ele>215</ele>
        <time>2013-07-14T09:36:10Z</time>
      </trkpt>
      <trkpt lat="44.31303" lon="4.58092">
        <ele>215</ele>
        <time>2013-07-14T09:36:15Z</time>
      </trkpt>
      <trkpt lat="44.31304" lon="4.58089">
        <ele>215</ele>
        <time>2013-07-14T09:36:23Z</time>
      </trkpt>
      <trkpt lat="44.31303" lon="4.5809">
        <ele>215</ele>
        <time>2013-07-14T09:36:30Z</time>
      </trkpt>
      <trkpt lat="44.31303" lon="4.5809">
        <ele>216</ele>
        <time>2013-07-14T09:36:36Z</time>
      </trkpt>
      <trkpt lat="44.31303" lon="4.58091">
        <ele>216</ele>
        <time>2013-07-14T09:36:43Z</time>
      </trkpt>
      <trkpt lat="44.31302" lon="4.58091">
        <ele>216</ele>
        <time>2013-07-14T09:36:48Z</time>
      </trkpt>
      <trkpt lat="44.31304" lon="4.58089">
        <ele>216</ele>
        <time>2013-07-14T09:36:56Z</time>
      </trkpt>
      <trkpt lat="44.31305" lon="4.58088">
        <ele>216</ele>
        <time>2013-07-14T09:37:02Z</time>
      </trkpt>
      <trkpt lat="44.31302" lon="4.58091">
        <ele>216</ele>
        <time>2013-07-14T09:37:09Z</time>
      </trkpt>
      <trkpt lat="44.31303" lon="4.58091">
        <ele>217</ele>
        <time>2013-07-14T09:37:15Z</time>
      </trkpt>
      <trkpt lat="44.31306" lon="4.58088">
        <ele>217</ele>
        <time>2013-07-14T09:37:20Z</time>
      </trkpt>
      <trkpt lat="44.31306" lon="4.5808">
        <ele>215</ele>
        <time>2013-07-14T09:37:25Z</time>
      </trkpt>
      <trkpt lat="44.31297" lon="4.58058">
        <ele>215</ele>
        <time>2013-07-14T09:37:31Z</time>
      </trkpt>
      <trkpt lat="44.31293" lon="4.58035">
        <ele>215</ele>
        <time>2013-07-14T09:37:38Z</time>
      </trkpt>
      <trkpt lat="44.31265" lon="4.58025">
        <ele>217</ele>
        <time>2013-07-14T09:37:43Z</time>
      </trkpt>
      <trkpt lat="44.31226" lon="4.58026">
        <ele>218</ele>
        <time>2013-07-14T09:37:48Z</time>
      </trkpt>
      <trkpt lat="44.31175" lon="4.58039">
        <ele>216</ele>
        <time>2013-07-14T09:37:55Z</time>
      </trkpt>
      <trkpt lat="44.31103" lon="4.58105">
        <ele>208</ele>
        <time>2013-07-14T09:38:10Z</time>
      </trkpt>
      <trkpt lat="44.31101" lon="4.5807">
        <ele>197</ele>
        <time>2013-07-14T09:38:18Z</time>
      </trkpt>
      <trkpt lat="44.31054" lon="4.58053">
        <ele>196</ele>
        <time>2013-07-14T09:38:25Z</time>
      </trkpt>
      <trkpt lat="44.30851" lon="4.57962">
        <ele>180</ele>
        <time>2013-07-14T09:38:46Z</time>
      </trkpt>
      <trkpt lat="44.30748" lon="4.57882">
        <ele>173</ele>
        <time>2013-07-14T09:38:58Z</time>
      </trkpt>
      <trkpt lat="44.30538" lon="4.57856">
        <ele>162</ele>
        <time>2013-07-14T09:39:21Z</time>
      </trkpt>
      <trkpt lat="44.30497" lon="4.57839">
        <ele>161</ele>
        <time>2013-07-14T09:39:26Z</time>
      </trkpt>
      <trkpt lat="44.30449" lon="4.57789">
        <ele>160</ele>
        <time>2013-07-14T09:39:33Z</time>
      </trkpt>
      <trkpt lat="44.30443" lon="4.57742">
        <ele>159</ele>
        <time>2013-07-14T09:39:39Z</time>
      </trkpt>
      <trkpt lat="44.30404" lon="4.57664">
        <ele>152</ele>
        <time>2013-07-14T09:39:51Z</time>
      </trkpt>
      <trkpt lat="44.30368" lon="4.57626">
        <ele>149</ele>
        <time>2013-07-14T09:39:57Z</time>
      </trkpt>
      <trkpt lat="44.30307" lon="4.57641">
        <ele>147</ele>
        <time>2013-07-14T09:40:05Z</time>
      </trkpt>
      <trkpt lat="44.30264" lon="4.57682">
        <ele>144</ele>
        <time>2013-07-14T09:40:12Z</time>
      </trkpt>
      <trkpt lat="44.30201" lon="4.57833">
        <ele>137</ele>
        <time>2013-07-14T09:40:27Z</time>
      </trkpt>
      <trkpt lat="44.30186" lon="4.57843">
        <ele>133</ele>
        <time>2013-07-14T09:40:35Z</time>
      </trkpt>
      <trkpt lat="44.30185" lon="4.57845">
        <ele>128</ele>
        <time>2013-07-14T09:40:40Z</time>
      </trkpt>
      <trkpt lat="44.30188" lon="4.57844">
        <ele>122</ele>
        <time>2013-07-14T09:40:48Z</time>
      </trkpt>
      <trkpt lat="44.30186" lon="4.57845">
        <ele>121</ele>
        <time>2013-07-14T09:40:55Z</time>
      </trkpt>
      <trkpt lat="44.30185" lon="4.57848">
        <ele>118</ele>
        <time>2013-07-14T09:41:14Z</time>
      </trkpt>
      <trkpt lat="44.30177" lon="4.57853">
        <ele>118</ele>
        <time>2013-07-14T09:41:19Z</time>
      </trkpt>
      <trkpt lat="44.30237" lon="4.58444">
        <ele>120</ele>
        <time>2013-07-14T09:43:00Z</time>
      </trkpt>
      <trkpt lat="44.30237" lon="4.58477">
        <ele>121</ele>
        <time>2013-07-14T09:43:05Z</time>
      </trkpt>
      <trkpt lat="44.30238" lon="4.58519">
        <ele>119</ele>
        <time>2013-07-14T09:43:12Z</time>
      </trkpt>
      <trkpt lat="44.30252" lon="4.58566">
        <ele>116</ele>
        <time>2013-07-14T09:43:20Z</time>
      </trkpt>
      <trkpt lat="44.30288" lon="4.5858">
        <ele>114</ele>
        <time>2013-07-14T09:43:28Z</time>
      </trkpt>
      <trkpt lat="44.3045" lon="4.58611">
        <ele>114</ele>
        <time>2013-07-14T09:44:14Z</time>
      </trkpt>
      <trkpt lat="44.30486" lon="4.58618">
        <ele>115</ele>
        <time>2013-07-14T09:44:25Z</time>
      </trkpt>
      <trkpt lat="44.30596" lon="4.58661">
        <ele>117</ele>
        <time>2013-07-14T09:45:03Z</time>
      </trkpt>
      <trkpt lat="44.30547" lon="4.58826">
        <ele>118</ele>
        <time>2013-07-14T09:45:39Z</time>
      </trkpt>
      <trkpt lat="44.30535" lon="4.58862">
        <ele>117</ele>
        <time>2013-07-14T09:45:47Z</time>
      </trkpt>
      <trkpt lat="44.30491" lon="4.59195">
        <ele>115</ele>
        <time>2013-07-14T09:46:37Z</time>
      </trkpt>
      <trkpt lat="44.30473" lon="4.59272">
        <ele>114</ele>
        <time>2013-07-14T09:46:51Z</time>
      </trkpt>
      <trkpt lat="44.30469" lon="4.59315">
        <ele>113</ele>
        <time>2013-07-14T09:46:59Z</time>
      </trkpt>
      <trkpt lat="44.30469" lon="4.59341">
        <ele>113</ele>
        <time>2013-07-14T09:47:04Z</time>
      </trkpt>
      <trkpt lat="44.30471" lon="4.59367">
        <ele>113</ele>
        <time>2013-07-14T09:47:10Z</time>
      </trkpt>
      <trkpt lat="44.30486" lon="4.59386">
        <ele>113</ele>
        <time>2013-07-14T09:47:17Z</time>
      </trkpt>
      <trkpt lat="44.30532" lon="4.59412">
        <ele>114</ele>
        <time>2013-07-14T09:47:35Z</time>
      </trkpt>
      <trkpt lat="44.30536" lon="4.59412">
        <ele>114</ele>
        <time>2013-07-14T09:47:40Z</time>
      </trkpt>
      <trkpt lat="44.30536" lon="4.59412">
        <ele>115</ele>
        <time>2013-07-14T09:47:46Z</time>
      </trkpt>
      <trkpt lat="44.30537" lon="4.59414">
        <ele>115</ele>
        <time>2013-07-14T09:47:52Z</time>
      </trkpt>
      <trkpt lat="44.30539" lon="4.59414">
        <ele>116</ele>
        <time>2013-07-14T09:47:58Z</time>
      </trkpt>
      <trkpt lat="44.3056" lon="4.59412">
        <ele>118</ele>
        <time>2013-07-14T09:48:10Z</time>
      </trkpt>
      <trkpt lat="44.3057" lon="4.59413">
        <ele>119</ele>
        <time>2013-07-14T09:48:16Z</time>
      </trkpt>
      <trkpt lat="44.30579" lon="4.59415">
        <ele>121</ele>
        <time>2013-07-14T09:48:21Z</time>
      </trkpt>
      <trkpt lat="44.30587" lon="4.59414">
        <ele>121</ele>
        <time>2013-07-14T09:48:27Z</time>
      </trkpt>
      <trkpt lat="44.30591" lon="4.59416">
        <ele>122</ele>
        <time>2013-07-14T09:48:32Z</time>
      </trkpt>
      <trkpt lat="44.30622" lon="4.59431">
        <ele>127</ele>
        <time>2013-07-14T09:48:59Z</time>
      </trkpt>
      <trkpt lat="44.3063" lon="4.59439">
        <ele>130</ele>
        <time>2013-07-14T09:49:12Z</time>
      </trkpt>
      <trkpt lat="44.30634" lon="4.5944">
        <ele>132</ele>
        <time>2013-07-14T09:49:17Z</time>
      </trkpt>
      <trkpt lat="44.30637" lon="4.59442">
        <ele>134</ele>
        <time>2013-07-14T09:49:22Z</time>
      </trkpt>
      <trkpt lat="44.30641" lon="4.59443">
        <ele>138</ele>
        <time>2013-07-14T09:49:28Z</time>
      </trkpt>
      <trkpt lat="44.30644" lon="4.59443">
        <ele>142</ele>
        <time>2013-07-14T09:49:36Z</time>
      </trkpt>
      <trkpt lat="44.30651" lon="4.5945">
        <ele>142</ele>
        <time>2013-07-14T09:49:49Z</time>
      </trkpt>
      <trkpt lat="44.30648" lon="4.5946">
        <ele>141</ele>
        <time>2013-07-14T09:49:56Z</time>
      </trkpt>
      <trkpt lat="44.30638" lon="4.59479">
        <ele>143</ele>
        <time>2013-07-14T09:50:13Z</time>
      </trkpt>
      <trkpt lat="44.3062" lon="4.59532">
        <ele>142</ele>
        <time>2013-07-14T09:50:41Z</time>
      </trkpt>
      <trkpt lat="44.30613" lon="4.59547">
        <ele>145</ele>
        <time>2013-07-14T09:50:49Z</time>
      </trkpt>
      <trkpt lat="44.30539" lon="4.59646">
        <ele>145</ele>
        <time>2013-07-14T09:51:21Z</time>
      </trkpt>
      <trkpt lat="44.30483" lon="4.59689">
        <ele>145</ele>
        <time>2013-07-14T09:51:34Z</time>
      </trkpt>
      <trkpt lat="44.30436" lon="4.59764">
        <ele>141</ele>
        <time>2013-07-14T09:51:46Z</time>
      </trkpt>
      <trkpt lat="44.30414" lon="4.59833">
        <ele>133</ele>
        <time>2013-07-14T09:51:52Z</time>
      </trkpt>
      <trkpt lat="44.30361" lon="4.60044">
        <ele>126</ele>
        <time>2013-07-14T09:52:16Z</time>
      </trkpt>
      <trkpt lat="44.30379" lon="4.60273">
        <ele>121</ele>
        <time>2013-07-14T09:53:14Z</time>
      </trkpt>
      <trkpt lat="44.30381" lon="4.60296">
        <ele>121</ele>
        <time>2013-07-14T09:53:20Z</time>
      </trkpt>
      <trkpt lat="44.30383" lon="4.60321">
        <ele>120</ele>
        <time>2013-07-14T09:53:27Z</time>
      </trkpt>
      <trkpt lat="44.30383" lon="4.60342">
        <ele>120</ele>
        <time>2013-07-14T09:53:32Z</time>
      </trkpt>
      <trkpt lat="44.30383" lon="4.60365">
        <ele>121</ele>
        <time>2013-07-14T09:53:38Z</time>
      </trkpt>
      <trkpt lat="44.30383" lon="4.6039">
        <ele>121</ele>
        <time>2013-07-14T09:53:45Z</time>
      </trkpt>
      <trkpt lat="44.30387" lon="4.6042">
        <ele>120</ele>
        <time>2013-07-14T09:53:52Z</time>
      </trkpt>
      <trkpt lat="44.30388" lon="4.60444">
        <ele>120</ele>
        <time>2013-07-14T09:53:58Z</time>
      </trkpt>
      <trkpt lat="44.30389" lon="4.60464">
        <ele>119</ele>
        <time>2013-07-14T09:54:04Z</time>
      </trkpt>
      <trkpt lat="44.30388" lon="4.60484">
        <ele>121</ele>
        <time>2013-07-14T09:54:10Z</time>
      </trkpt>
      <trkpt lat="44.30387" lon="4.60512">
        <ele>122</ele>
        <time>2013-07-14T09:54:17Z</time>
      </trkpt>
      <trkpt lat="44.30388" lon="4.60531">
        <ele>124</ele>
        <time>2013-07-14T09:54:22Z</time>
      </trkpt>
      <trkpt lat="44.3039" lon="4.60555">
        <ele>125</ele>
        <time>2013-07-14T09:54:28Z</time>
      </trkpt>
      <trkpt lat="44.30393" lon="4.60586">
        <ele>125</ele>
        <time>2013-07-14T09:54:36Z</time>
      </trkpt>
      <trkpt lat="44.30395" lon="4.60604">
        <ele>126</ele>
        <time>2013-07-14T09:54:41Z</time>
      </trkpt>
      <trkpt lat="44.30396" lon="4.60626">
        <ele>125</ele>
        <time>2013-07-14T09:54:47Z</time>
      </trkpt>
      <trkpt lat="44.3038" lon="4.60794">
        <ele>133</ele>
        <time>2013-07-14T09:55:47Z</time>
      </trkpt>
      <trkpt lat="44.30377" lon="4.60812">
        <ele>133</ele>
        <time>2013-07-14T09:55:52Z</time>
      </trkpt>
      <trkpt lat="44.30373" lon="4.60838">
        <ele>133</ele>
        <time>2013-07-14T09:55:58Z</time>
      </trkpt>
      <trkpt lat="44.30368" lon="4.6089">
        <ele>133</ele>
        <time>2013-07-14T09:56:09Z</time>
      </trkpt>
      <trkpt lat="44.30365" lon="4.60922">
        <ele>132</ele>
        <time>2013-07-14T09:56:16Z</time>
      </trkpt>
      <trkpt lat="44.30363" lon="4.60953">
        <ele>133</ele>
        <time>2013-07-14T09:56:23Z</time>
      </trkpt>
      <trkpt lat="44.30361" lon="4.60976">
        <ele>133</ele>
        <time>2013-07-14T09:56:29Z</time>
      </trkpt>
      <trkpt lat="44.30359" lon="4.61011">
        <ele>133</ele>
        <time>2013-07-14T09:56:36Z</time>
      </trkpt>
      <trkpt lat="44.30354" lon="4.6103">
        <ele>134</ele>
        <time>2013-07-14T09:56:42Z</time>
      </trkpt>
      <trkpt lat="44.30351" lon="4.61051">
        <ele>133</ele>
        <time>2013-07-14T09:56:48Z</time>
      </trkpt>
      <trkpt lat="44.30339" lon="4.61078">
        <ele>136</ele>
        <time>2013-07-14T09:56:55Z</time>
      </trkpt>
      <trkpt lat="44.30328" lon="4.61108">
        <ele>137</ele>
        <time>2013-07-14T09:57:01Z</time>
      </trkpt>
      <trkpt lat="44.3034" lon="4.61145">
        <ele>137</ele>
        <time>2013-07-14T09:57:08Z</time>
      </trkpt>
      <trkpt lat="44.30339" lon="4.61178">
        <ele>137</ele>
        <time>2013-07-14T09:57:15Z</time>
      </trkpt>
      <trkpt lat="44.30325" lon="4.61197">
        <ele>141</ele>
        <time>2013-07-14T09:57:21Z</time>
      </trkpt>
      <trkpt lat="44.30315" lon="4.61204">
        <ele>143</ele>
        <time>2013-07-14T09:57:26Z</time>
      </trkpt>
      <trkpt lat="44.30308" lon="4.61232">
        <ele>146</ele>
        <time>2013-07-14T09:57:32Z</time>
      </trkpt>
      <trkpt lat="44.30281" lon="4.61247">
        <ele>147</ele>
        <time>2013-07-14T09:57:38Z</time>
      </trkpt>
      <trkpt lat="44.30272" lon="4.61256">
        <ele>147</ele>
        <time>2013-07-14T09:57:43Z</time>
      </trkpt>
      <trkpt lat="44.30272" lon="4.61291">
        <ele>144</ele>
        <time>2013-07-14T09:57:49Z</time>
      </trkpt>
      <trkpt lat="44.30243" lon="4.61344">
        <ele>144</ele>
        <time>2013-07-14T09:57:57Z</time>
      </trkpt>
      <trkpt lat="44.30196" lon="4.61406">
        <ele>146</ele>
        <time>2013-07-14T09:58:03Z</time>
      </trkpt>
      <trkpt lat="44.3005" lon="4.61493">
        <ele>138</ele>
        <time>2013-07-14T09:58:20Z</time>
      </trkpt>
      <trkpt lat="44.30006" lon="4.61519">
        <ele>130</ele>
        <time>2013-07-14T09:58:26Z</time>
      </trkpt>
      <trkpt lat="44.29997" lon="4.6158">
        <ele>123</ele>
        <time>2013-07-14T09:58:33Z</time>
      </trkpt>
      <trkpt lat="44.29996" lon="4.61627">
        <ele>119</ele>
        <time>2013-07-14T09:58:39Z</time>
      </trkpt>
      <trkpt lat="44.29996" lon="4.61675">
        <ele>119</ele>
        <time>2013-07-14T09:58:46Z</time>
      </trkpt>
      <trkpt lat="44.29989" lon="4.61709">
        <ele>117</ele>
        <time>2013-07-14T09:58:52Z</time>
      </trkpt>
      <trkpt lat="44.29986" lon="4.6179">
        <ele>118</ele>
        <time>2013-07-14T09:59:10Z</time>
      </trkpt>
      <trkpt lat="44.29979" lon="4.6181">
        <ele>116</ele>
        <time>2013-07-14T09:59:15Z</time>
      </trkpt>
      <trkpt lat="44.29975" lon="4.61831">
        <ele>116</ele>
        <time>2013-07-14T09:59:20Z</time>
      </trkpt>
      <trkpt lat="44.29969" lon="4.61853">
        <ele>117</ele>
        <time>2013-07-14T09:59:27Z</time>
      </trkpt>
      <trkpt lat="44.29965" lon="4.61891">
        <ele>117</ele>
        <time>2013-07-14T09:59:36Z</time>
      </trkpt>
      <trkpt lat="44.29952" lon="4.6194">
        <ele>114</ele>
        <time>2013-07-14T09:59:44Z</time>
      </trkpt>
      <trkpt lat="44.29941" lon="4.61983">
        <ele>113</ele>
        <time>2013-07-14T09:59:52Z</time>
      </trkpt>
      <trkpt lat="44.29932" lon="4.62021">
        <ele>113</ele>
        <time>2013-07-14T09:59:59Z</time>
      </trkpt>
      <trkpt lat="44.29925" lon="4.62049">
        <ele>114</ele>
        <time>2013-07-14T10:00:05Z</time>
      </trkpt>
      <trkpt lat="44.2992" lon="4.62084">
        <ele>114</ele>
        <time>2013-07-14T10:00:11Z</time>
      </trkpt>
      <trkpt lat="44.29913" lon="4.62109">
        <ele>115</ele>
        <time>2013-07-14T10:00:16Z</time>
      </trkpt>
      <trkpt lat="44.29905" lon="4.62132">
        <ele>117</ele>
        <time>2013-07-14T10:00:21Z</time>
      </trkpt>
      <trkpt lat="44.29908" lon="4.62156">
        <ele>116</ele>
        <time>2013-07-14T10:00:26Z</time>
      </trkpt>
      <trkpt lat="44.29963" lon="4.62207">
        <ele>116</ele>
        <time>2013-07-14T10:00:52Z</time>
      </trkpt>
      <trkpt lat="44.29971" lon="4.62218">
        <ele>117</ele>
        <time>2013-07-14T10:00:58Z</time>
      </trkpt>
      <trkpt lat="44.29999" lon="4.62243">
        <ele>121</ele>
        <time>2013-07-14T10:01:11Z</time>
      </trkpt>
      <trkpt lat="44.3001" lon="4.6224">
        <ele>120</ele>
        <time>2013-07-14T10:01:16Z</time>
      </trkpt>
      <trkpt lat="44.30063" lon="4.62168">
        <ele>123</ele>
        <time>2013-07-14T10:01:45Z</time>
      </trkpt>
      <trkpt lat="44.30075" lon="4.62163">
        <ele>123</ele>
        <time>2013-07-14T10:01:50Z</time>
      </trkpt>
      <trkpt lat="44.30095" lon="4.62166">
        <ele>123</ele>
        <time>2013-07-14T10:01:57Z</time>
      </trkpt>
      <trkpt lat="44.30121" lon="4.62179">
        <ele>126</ele>
        <time>2013-07-14T10:02:09Z</time>
      </trkpt>
      <trkpt lat="44.30152" lon="4.62195">
        <ele>143</ele>
        <time>2013-07-14T10:02:17Z</time>
      </trkpt>
      <trkpt lat="44.30171" lon="4.62196">
        <ele>123</ele>
        <time>2013-07-14T10:02:23Z</time>
      </trkpt>
      <trkpt lat="44.30177" lon="4.62204">
        <ele>124</ele>
        <time>2013-07-14T10:02:28Z</time>
      </trkpt>
      <trkpt lat="44.30152" lon="4.62299">
        <ele>132</ele>
        <time>2013-07-14T10:02:47Z</time>
      </trkpt>
      <trkpt lat="44.30103" lon="4.62603">
        <ele>123</ele>
        <time>2013-07-14T10:03:28Z</time>
      </trkpt>
      <trkpt lat="44.30099" lon="4.62636">
        <ele>121</ele>
        <time>2013-07-14T10:03:33Z</time>
      </trkpt>
      <trkpt lat="44.30048" lon="4.62891">
        <ele>122</ele>
        <time>2013-07-14T10:04:14Z</time>
      </trkpt>
      <trkpt lat="44.29996" lon="4.63061">
        <ele>121</ele>
        <time>2013-07-14T10:04:44Z</time>
      </trkpt>
      <trkpt lat="44.29965" lon="4.63275">
        <ele>119</ele>
        <time>2013-07-14T10:05:19Z</time>
      </trkpt>
      <trkpt lat="44.29951" lon="4.63383">
        <ele>119</ele>
        <time>2013-07-14T10:05:37Z</time>
      </trkpt>
      <trkpt lat="44.2995" lon="4.63419">
        <ele>119</ele>
        <time>2013-07-14T10:05:43Z</time>
      </trkpt>
      <trkpt lat="44.29954" lon="4.63465">
        <ele>119</ele>
        <time>2013-07-14T10:05:49Z</time>
      </trkpt>
      <trkpt lat="44.29981" lon="4.63498">
        <ele>121</ele>
        <time>2013-07-14T10:06:01Z</time>
      </trkpt>
      <trkpt lat="44.3" lon="4.63502">
        <ele>121</ele>
        <time>2013-07-14T10:06:07Z</time>
      </trkpt>
      <trkpt lat="44.30021" lon="4.63504">
        <ele>121</ele>
        <time>2013-07-14T10:06:13Z</time>
      </trkpt>
      <trkpt lat="44.30036" lon="4.63506">
        <ele>120</ele>
        <time>2013-07-14T10:06:18Z</time>
      </trkpt>
      <trkpt lat="44.30053" lon="4.63507">
        <ele>120</ele>
        <time>2013-07-14T10:06:24Z</time>
      </trkpt>
      <trkpt lat="44.30074" lon="4.63505">
        <ele>120</ele>
        <time>2013-07-14T10:06:30Z</time>
      </trkpt>
      <trkpt lat="44.30092" lon="4.63506">
        <ele>120</ele>
        <time>2013-07-14T10:06:35Z</time>
      </trkpt>
      <trkpt lat="44.30109" lon="4.6351">
        <ele>120</ele>
        <time>2013-07-14T10:06:41Z</time>
      </trkpt>
      <trkpt lat="44.30135" lon="4.63512">
        <ele>121</ele>
        <time>2013-07-14T10:06:48Z</time>
      </trkpt>
      <trkpt lat="44.30152" lon="4.63512">
        <ele>121</ele>
        <time>2013-07-14T10:06:53Z</time>
      </trkpt>
      <trkpt lat="44.3016" lon="4.63498">
        <ele>122</ele>
        <time>2013-07-14T10:06:59Z</time>
      </trkpt>
      <trkpt lat="44.30164" lon="4.63463">
        <ele>123</ele>
        <time>2013-07-14T10:07:09Z</time>
      </trkpt>
      <trkpt lat="44.30166" lon="4.63437">
        <ele>123</ele>
        <time>2013-07-14T10:07:15Z</time>
      </trkpt>
      <trkpt lat="44.30169" lon="4.63417">
        <ele>123</ele>
        <time>2013-07-14T10:07:20Z</time>
      </trkpt>
      <trkpt lat="44.3017" lon="4.63395">
        <ele>122</ele>
        <time>2013-07-14T10:07:26Z</time>
      </trkpt>
      <trkpt lat="44.3017" lon="4.63373">
        <ele>122</ele>
        <time>2013-07-14T10:07:32Z</time>
      </trkpt>
      <trkpt lat="44.30173" lon="4.63346">
        <ele>122</ele>
        <time>2013-07-14T10:07:38Z</time>
      </trkpt>
      <trkpt lat="44.30175" lon="4.63326">
        <ele>122</ele>
        <time>2013-07-14T10:07:43Z</time>
      </trkpt>
      <trkpt lat="44.30343" lon="4.63317">
        <ele>122</ele>
        <time>2013-07-14T10:08:36Z</time>
      </trkpt>
      <trkpt lat="44.30363" lon="4.63319">
        <ele>121</ele>
        <time>2013-07-14T10:08:43Z</time>
      </trkpt>
      <trkpt lat="44.30398" lon="4.63322">
        <ele>121</ele>
        <time>2013-07-14T10:08:55Z</time>
      </trkpt>
      <trkpt lat="44.30416" lon="4.63323">
        <ele>121</ele>
        <time>2013-07-14T10:09:01Z</time>
      </trkpt>
      <trkpt lat="44.30433" lon="4.63313">
        <ele>120</ele>
        <time>2013-07-14T10:09:08Z</time>
      </trkpt>
      <trkpt lat="44.30436" lon="4.63279">
        <ele>120</ele>
        <time>2013-07-14T10:09:15Z</time>
      </trkpt>
      <trkpt lat="44.30432" lon="4.63232">
        <ele>120</ele>
        <time>2013-07-14T10:09:23Z</time>
      </trkpt>
      <trkpt lat="44.30431" lon="4.63181">
        <ele>119</ele>
        <time>2013-07-14T10:09:30Z</time>
      </trkpt>
      <trkpt lat="44.30431" lon="4.63131">
        <ele>118</ele>
        <time>2013-07-14T10:09:37Z</time>
      </trkpt>
      <trkpt lat="44.30425" lon="4.63056">
        <ele>119</ele>
        <time>2013-07-14T10:09:49Z</time>
      </trkpt>
      <trkpt lat="44.30444" lon="4.63047">
        <ele>117</ele>
        <time>2013-07-14T10:09:58Z</time>
      </trkpt>
      <trkpt lat="44.30457" lon="4.6305">
        <ele>118</ele>
        <time>2013-07-14T10:10:03Z</time>
      </trkpt>
      <trkpt lat="44.30524" lon="4.63064">
        <ele>120</ele>
        <time>2013-07-14T10:10:22Z</time>
      </trkpt>
      <trkpt lat="44.30638" lon="4.63095">
        <ele>121</ele>
        <time>2013-07-14T10:10:51Z</time>
      </trkpt>
      <trkpt lat="44.30675" lon="4.63045">
        <ele>121</ele>
        <time>2013-07-14T10:11:09Z</time>
      </trkpt>
      <trkpt lat="44.30713" lon="4.63057">
        <ele>112</ele>
        <time>2013-07-14T10:11:19Z</time>
      </trkpt>
      <trkpt lat="44.30725" lon="4.63052">
        <ele>116</ele>
        <time>2013-07-14T10:11:24Z</time>
      </trkpt>
      <trkpt lat="44.30727" lon="4.63027">
        <ele>118</ele>
        <time>2013-07-14T10:11:31Z</time>
      </trkpt>
      <trkpt lat="44.3074" lon="4.62981">
        <ele>120</ele>
        <time>2013-07-14T10:11:43Z</time>
      </trkpt>
      <trkpt lat="44.30758" lon="4.62989">
        <ele>120</ele>
        <time>2013-07-14T10:11:49Z</time>
      </trkpt>
      <trkpt lat="44.3084" lon="4.63018">
        <ele>122</ele>
        <time>2013-07-14T10:12:11Z</time>
      </trkpt>
      <trkpt lat="44.30999" lon="4.6308">
        <ele>121</ele>
        <time>2013-07-14T10:12:49Z</time>
      </trkpt>
      <trkpt lat="44.31016" lon="4.63087">
        <ele>121</ele>
        <time>2013-07-14T10:12:54Z</time>
      </trkpt>
      <trkpt lat="44.31053" lon="4.63046">
        <ele>122</ele>
        <time>2013-07-14T10:13:11Z</time>
      </trkpt>
      <trkpt lat="44.31201" lon="4.63026">
        <ele>121</ele>
        <time>2013-07-14T10:13:45Z</time>
      </trkpt>
      <trkpt lat="44.31227" lon="4.63031">
        <ele>121</ele>
        <time>2013-07-14T10:13:51Z</time>
      </trkpt>
      <trkpt lat="44.31265" lon="4.63043">
        <ele>121</ele>
        <time>2013-07-14T10:14:00Z</time>
      </trkpt>
      <trkpt lat="44.31282" lon="4.63056">
        <ele>121</ele>
        <time>2013-07-14T10:14:05Z</time>
      </trkpt>
      <trkpt lat="44.31318" lon="4.63061">
        <ele>122</ele>
        <time>2013-07-14T10:14:13Z</time>
      </trkpt>
      <trkpt lat="44.31341" lon="4.63066">
        <ele>122</ele>
        <time>2013-07-14T10:14:18Z</time>
      </trkpt>
      <trkpt lat="44.31367" lon="4.63077">
        <ele>122</ele>
        <time>2013-07-14T10:14:24Z</time>
      </trkpt>
      <trkpt lat="44.31401" lon="4.63092">
        <ele>122</ele>
        <time>2013-07-14T10:14:32Z</time>
      </trkpt>
      <trkpt lat="44.31422" lon="4.63096">
        <ele>122</ele>
        <time>2013-07-14T10:14:37Z</time>
      </trkpt>
      <trkpt lat="44.31442" lon="4.63099">
        <ele>123</ele>
        <time>2013-07-14T10:14:42Z</time>
      </trkpt>
      <trkpt lat="44.31465" lon="4.63101">
        <ele>122</ele>
        <time>2013-07-14T10:14:48Z</time>
      </trkpt>
      <trkpt lat="44.31489" lon="4.63106">
        <ele>121</ele>
        <time>2013-07-14T10:14:56Z</time>
      </trkpt>
      <trkpt lat="44.31492" lon="4.63107">
        <ele>120</ele>
        <time>2013-07-14T10:15:03Z</time>
      </trkpt>
      <trkpt lat="44.31487" lon="4.63106">
        <ele>121</ele>
        <time>2013-07-14T10:15:09Z</time>
      </trkpt>
      <trkpt lat="44.31474" lon="4.63104">
        <ele>122</ele>
        <time>2013-07-14T10:15:15Z</time>
      </trkpt>
      <trkpt lat="44.31474" lon="4.63093">
        <ele>122</ele>
        <time>2013-07-14T10:15:21Z</time>
      </trkpt>
      <trkpt lat="44.31489" lon="4.63092">
        <ele>121</ele>
        <time>2013-07-14T10:15:28Z</time>
      </trkpt>
      <trkpt lat="44.31502" lon="4.63098">
        <ele>122</ele>
        <time>2013-07-14T10:15:33Z</time>
      </trkpt>
      <trkpt lat="44.31519" lon="4.63103">
        <ele>123</ele>
        <time>2013-07-14T10:15:39Z</time>
      </trkpt>
      <trkpt lat="44.31534" lon="4.63106">
        <ele>123</ele>
        <time>2013-07-14T10:15:44Z</time>
      </trkpt>
      <trkpt lat="44.31547" lon="4.63108">
        <ele>123</ele>
        <time>2013-07-14T10:15:49Z</time>
      </trkpt>
      <trkpt lat="44.31554" lon="4.63108">
        <ele>122</ele>
        <time>2013-07-14T10:15:55Z</time>
      </trkpt>
      <trkpt lat="44.31555" lon="4.63107">
        <ele>121</ele>
        <time>2013-07-14T10:16:02Z</time>
      </trkpt>
      <trkpt lat="44.31558" lon="4.6311">
        <ele>122</ele>
        <time>2013-07-14T10:16:08Z</time>
      </trkpt>
      <trkpt lat="44.31582" lon="4.6311">
        <ele>122</ele>
        <time>2013-07-14T10:16:19Z</time>
      </trkpt>
      <trkpt lat="44.316" lon="4.63113">
        <ele>122</ele>
        <time>2013-07-14T10:16:26Z</time>
      </trkpt>
      <trkpt lat="44.31611" lon="4.63114">
        <ele>122</ele>
        <time>2013-07-14T10:16:31Z</time>
      </trkpt>
      <trkpt lat="44.31623" lon="4.63112">
        <ele>123</ele>
        <time>2013-07-14T10:16:37Z</time>
      </trkpt>
      <trkpt lat="44.31648" lon="4.63114">
        <ele>123</ele>
        <time>2013-07-14T10:16:48Z</time>
      </trkpt>
      <trkpt lat="44.3166" lon="4.63113">
        <ele>123</ele>
        <time>2013-07-14T10:16:53Z</time>
      </trkpt>
      <trkpt lat="44.31698" lon="4.63109">
        <ele>123</ele>
        <time>2013-07-14T10:17:10Z</time>
      </trkpt>
      <trkpt lat="44.31708" lon="4.63103">
        <ele>123</ele>
        <time>2013-07-14T10:17:16Z</time>
      </trkpt>
      <trkpt lat="44.31758" lon="4.63015">
        <ele>128</ele>
        <time>2013-07-14T10:17:55Z</time>
      </trkpt>
      <trkpt lat="44.31768" lon="4.62982">
        <ele>127</ele>
        <time>2013-07-14T10:18:07Z</time>
      </trkpt>
      <trkpt lat="44.3179" lon="4.62966">
        <ele>127</ele>
        <time>2013-07-14T10:18:20Z</time>
      </trkpt>
      <trkpt lat="44.31818" lon="4.629">
        <ele>128</ele>
        <time>2013-07-14T10:18:51Z</time>
      </trkpt>
      <trkpt lat="44.31829" lon="4.62881">
        <ele>129</ele>
        <time>2013-07-14T10:18:59Z</time>
      </trkpt>
      <trkpt lat="44.3188" lon="4.62797">
        <ele>126</ele>
        <time>2013-07-14T10:19:31Z</time>
      </trkpt>
      <trkpt lat="44.31887" lon="4.62789">
        <ele>127</ele>
        <time>2013-07-14T10:19:36Z</time>
      </trkpt>
      <trkpt lat="44.31909" lon="4.62751">
        <ele>131</ele>
        <time>2013-07-14T10:19:56Z</time>
      </trkpt>
      <trkpt lat="44.31929" lon="4.62732">
        <ele>131</ele>
        <time>2013-07-14T10:20:14Z</time>
      </trkpt>
      <trkpt lat="44.3197" lon="4.6267">
        <ele>136</ele>
        <time>2013-07-14T10:20:43Z</time>
      </trkpt>
      <trkpt lat="44.31984" lon="4.62635">
        <ele>137</ele>
        <time>2013-07-14T10:21:01Z</time>
      </trkpt>
      <trkpt lat="44.32016" lon="4.62554">
        <ele>136</ele>
        <time>2013-07-14T10:21:27Z</time>
      </trkpt>
      <trkpt lat="44.32023" lon="4.62538">
        <ele>135</ele>
        <time>2013-07-14T10:21:33Z</time>
      </trkpt>
      <trkpt lat="44.3203" lon="4.62511">
        <ele>136</ele>
        <time>2013-07-14T10:21:40Z</time>
      </trkpt>
      <trkpt lat="44.32036" lon="4.62485">
        <ele>136</ele>
        <time>2013-07-14T10:21:47Z</time>
      </trkpt>
      <trkpt lat="44.32046" lon="4.62475">
        <ele>136</ele>
        <time>2013-07-14T10:21:52Z</time>
      </trkpt>
      <trkpt lat="44.32054" lon="4.62461">
        <ele>137</ele>
        <time>2013-07-14T10:21:57Z</time>
      </trkpt>
      <trkpt lat="44.32065" lon="4.62438">
        <ele>138</ele>
        <time>2013-07-14T10:22:05Z</time>
      </trkpt>
      <trkpt lat="44.32069" lon="4.62432">
        <ele>137</ele>
        <time>2013-07-14T10:22:11Z</time>
      </trkpt>
      <trkpt lat="44.32067" lon="4.62432">
        <ele>138</ele>
        <time>2013-07-14T10:22:18Z</time>
      </trkpt>
      <trkpt lat="44.32066" lon="4.62431">
        <ele>140</ele>
        <time>2013-07-14T10:22:23Z</time>
      </trkpt>
      <trkpt lat="44.32066" lon="4.62433">
        <ele>141</ele>
        <time>2013-07-14T10:22:29Z</time>
      </trkpt>
      <trkpt lat="44.32065" lon="4.62434">
        <ele>142</ele>
        <time>2013-07-14T10:22:35Z</time>
      </trkpt>
      <trkpt lat="44.32066" lon="4.62435">
        <ele>143</ele>
        <time>2013-07-14T10:22:41Z</time>
      </trkpt>
      <trkpt lat="44.32067" lon="4.62435">
        <ele>143</ele>
        <time>2013-07-14T10:22:46Z</time>
      </trkpt>
      <trkpt lat="44.32067" lon="4.62432">
        <ele>141</ele>
        <time>2013-07-14T10:22:52Z</time>
      </trkpt>
      <trkpt lat="44.32067" lon="4.62431">
        <ele>141</ele>
        <time>2013-07-14T10:23:00Z</time>
      </trkpt>
      <trkpt lat="44.32069" lon="4.62431">
        <ele>142</ele>
        <time>2013-07-14T10:23:07Z</time>
      </trkpt>
      <trkpt lat="44.32069" lon="4.62432">
        <ele>142</ele>
        <time>2013-07-14T10:23:13Z</time>
      </trkpt>
      <trkpt lat="44.32069" lon="4.62432">
        <ele>143</ele>
        <time>2013-07-14T10:23:18Z</time>
      </trkpt>
      <trkpt lat="44.32068" lon="4.62431">
        <ele>142</ele>
        <time>2013-07-14T10:23:24Z</time>
      </trkpt>
      <trkpt lat="44.3207" lon="4.62428">
        <ele>142</ele>
        <time>2013-07-14T10:23:31Z</time>
      </trkpt>
      <trkpt lat="44.32106" lon="4.62361">
        <ele>144</ele>
        <time>2013-07-14T10:23:58Z</time>
      </trkpt>
      <trkpt lat="44.32123" lon="4.6234">
        <ele>145</ele>
        <time>2013-07-14T10:24:06Z</time>
      </trkpt>
      <trkpt lat="44.32229" lon="4.62232">
        <ele>152</ele>
        <time>2013-07-14T10:24:55Z</time>
      </trkpt>
      <trkpt lat="44.32293" lon="4.62149">
        <ele>154</ele>
        <time>2013-07-14T10:25:25Z</time>
      </trkpt>
      <trkpt lat="44.32321" lon="4.62105">
        <ele>159</ele>
        <time>2013-07-14T10:25:43Z</time>
      </trkpt>
      <trkpt lat="44.32397" lon="4.62049">
        <ele>168</ele>
        <time>2013-07-14T10:26:33Z</time>
      </trkpt>
      <trkpt lat="44.32411" lon="4.62044">
        <ele>169</ele>
        <time>2013-07-14T10:26:40Z</time>
      </trkpt>
      <trkpt lat="44.32451" lon="4.62023">
        <ele>172</ele>
        <time>2013-07-14T10:27:02Z</time>
      </trkpt>
      <trkpt lat="44.32456" lon="4.62019">
        <ele>172</ele>
        <time>2013-07-14T10:27:07Z</time>
      </trkpt>
      <trkpt lat="44.32473" lon="4.62017">
        <ele>171</ele>
        <time>2013-07-14T10:27:20Z</time>
      </trkpt>
      <trkpt lat="44.32481" lon="4.62011">
        <ele>171</ele>
        <time>2013-07-14T10:27:25Z</time>
      </trkpt>
      <trkpt lat="44.32495" lon="4.62">
        <ele>173</ele>
        <time>2013-07-14T10:27:37Z</time>
      </trkpt>
      <trkpt lat="44.32498" lon="4.62">
        <ele>173</ele>
        <time>2013-07-14T10:27:43Z</time>
      </trkpt>
      <trkpt lat="44.32502" lon="4.61999">
        <ele>174</ele>
        <time>2013-07-14T10:27:50Z</time>
      </trkpt>
      <trkpt lat="44.32507" lon="4.61999">
        <ele>176</ele>
        <time>2013-07-14T10:27:55Z</time>
      </trkpt>
      <trkpt lat="44.32513" lon="4.61997">
        <ele>177</ele>
        <time>2013-07-14T10:28:01Z</time>
      </trkpt>
      <trkpt lat="44.3259" lon="4.61961">
        <ele>188</ele>
        <time>2013-07-14T10:29:05Z</time>
      </trkpt>
      <trkpt lat="44.32596" lon="4.6196">
        <ele>188</ele>
        <time>2013-07-14T10:29:11Z</time>
      </trkpt>
      <trkpt lat="44.32606" lon="4.61954">
        <ele>187</ele>
        <time>2013-07-14T10:29:18Z</time>
      </trkpt>
      <trkpt lat="44.32619" lon="4.61953">
        <ele>185</ele>
        <time>2013-07-14T10:29:25Z</time>
      </trkpt>
      <trkpt lat="44.32627" lon="4.61945">
        <ele>185</ele>
        <time>2013-07-14T10:29:32Z</time>
      </trkpt>
      <trkpt lat="44.32631" lon="4.61938">
        <ele>188</ele>
        <time>2013-07-14T10:29:38Z</time>
      </trkpt>
      <trkpt lat="44.32636" lon="4.61934">
        <ele>192</ele>
        <time>2013-07-14T10:29:43Z</time>
      </trkpt>
      <trkpt lat="44.32645" lon="4.61931">
        <ele>193</ele>
        <time>2013-07-14T10:29:50Z</time>
      </trkpt>
      <trkpt lat="44.32651" lon="4.61935">
        <ele>193</ele>
        <time>2013-07-14T10:29:55Z</time>
      </trkpt>
      <trkpt lat="44.32655" lon="4.61936">
        <ele>195</ele>
        <time>2013-07-14T10:30:02Z</time>
      </trkpt>
      <trkpt lat="44.32657" lon="4.61925">
        <ele>194</ele>
        <time>2013-07-14T10:30:07Z</time>
      </trkpt>
      <trkpt lat="44.32679" lon="4.61924">
        <ele>197</ele>
        <time>2013-07-14T10:30:13Z</time>
      </trkpt>
      <trkpt lat="44.32691" lon="4.61925">
        <ele>199</ele>
        <time>2013-07-14T10:30:19Z</time>
      </trkpt>
      <trkpt lat="44.327" lon="4.61925">
        <ele>199</ele>
        <time>2013-07-14T10:30:26Z</time>
      </trkpt>
      <trkpt lat="44.3271" lon="4.61924">
        <ele>197</ele>
        <time>2013-07-14T10:30:31Z</time>
      </trkpt>
      <trkpt lat="44.32716" lon="4.61924">
        <ele>196</ele>
        <time>2013-07-14T10:30:36Z</time>
      </trkpt>
      <trkpt lat="44.32722" lon="4.61922">
        <ele>196</ele>
        <time>2013-07-14T10:30:42Z</time>
      </trkpt>
      <trkpt lat="44.32731" lon="4.61919">
        <ele>197</ele>
        <time>2013-07-14T10:30:49Z</time>
      </trkpt>
      <trkpt lat="44.32743" lon="4.61915">
        <ele>197</ele>
        <time>2013-07-14T10:30:57Z</time>
      </trkpt>
      <trkpt lat="44.32753" lon="4.61904">
        <ele>197</ele>
        <time>2013-07-14T10:31:05Z</time>
      </trkpt>
      <trkpt lat="44.32761" lon="4.619">
        <ele>198</ele>
        <time>2013-07-14T10:31:11Z</time>
      </trkpt>
      <trkpt lat="44.32775" lon="4.61894">
        <ele>198</ele>
        <time>2013-07-14T10:31:18Z</time>
      </trkpt>
      <trkpt lat="44.32784" lon="4.61889">
        <ele>199</ele>
        <time>2013-07-14T10:31:23Z</time>
      </trkpt>
      <trkpt lat="44.32801" lon="4.61877">
        <ele>201</ele>
        <time>2013-07-14T10:31:41Z</time>
      </trkpt>
      <trkpt lat="44.3281" lon="4.61871">
        <ele>201</ele>
        <time>2013-07-14T10:31:47Z</time>
      </trkpt>
      <trkpt lat="44.32847" lon="4.61845">
        <ele>205</ele>
        <time>2013-07-14T10:32:15Z</time>
      </trkpt>
      <trkpt lat="44.32857" lon="4.61882">
        <ele>204</ele>
        <time>2013-07-14T10:32:37Z</time>
      </trkpt>
      <trkpt lat="44.32862" lon="4.6189">
        <ele>205</ele>
        <time>2013-07-14T10:32:49Z</time>
      </trkpt>
      <trkpt lat="44.32868" lon="4.61898">
        <ele>207</ele>
        <time>2013-07-14T10:33:01Z</time>
      </trkpt>
      <trkpt lat="44.32872" lon="4.61901">
        <ele>208</ele>
        <time>2013-07-14T10:33:08Z</time>
      </trkpt>
      <trkpt lat="44.32875" lon="4.61902">
        <ele>210</ele>
        <time>2013-07-14T10:33:13Z</time>
      </trkpt>
      <trkpt lat="44.32895" lon="4.61979">
        <ele>220</ele>
        <time>2013-07-14T10:34:14Z</time>
      </trkpt>
      <trkpt lat="44.32897" lon="4.61984">
        <ele>221</ele>
        <time>2013-07-14T10:34:22Z</time>
      </trkpt>
      <trkpt lat="44.32904" lon="4.61995">
        <ele>225</ele>
        <time>2013-07-14T10:34:37Z</time>
      </trkpt>
      <trkpt lat="44.32908" lon="4.61997">
        <ele>227</ele>
        <time>2013-07-14T10:34:45Z</time>
      </trkpt>
      <trkpt lat="44.32914" lon="4.62002">
        <ele>229</ele>
        <time>2013-07-14T10:34:52Z</time>
      </trkpt>
      <trkpt lat="44.32922" lon="4.62015">
        <ele>230</ele>
        <time>2013-07-14T10:35:04Z</time>
      </trkpt>
      <trkpt lat="44.32929" lon="4.62021">
        <ele>230</ele>
        <time>2013-07-14T10:35:10Z</time>
      </trkpt>
      <trkpt lat="44.32956" lon="4.62035">
        <ele>231</ele>
        <time>2013-07-14T10:35:33Z</time>
      </trkpt>
      <trkpt lat="44.32969" lon="4.6204">
        <ele>233</ele>
        <time>2013-07-14T10:35:44Z</time>
      </trkpt>
      <trkpt lat="44.32983" lon="4.62046">
        <ele>234</ele>
        <time>2013-07-14T10:35:55Z</time>
      </trkpt>
      <trkpt lat="44.32992" lon="4.62052">
        <ele>236</ele>
        <time>2013-07-14T10:36:02Z</time>
      </trkpt>
      <trkpt lat="44.33029" lon="4.62086">
        <ele>237</ele>
        <time>2013-07-14T10:36:25Z</time>
      </trkpt>
      <trkpt lat="44.33075" lon="4.62148">
        <ele>235</ele>
        <time>2013-07-14T10:36:47Z</time>
      </trkpt>
      <trkpt lat="44.33094" lon="4.6217">
        <ele>233</ele>
        <time>2013-07-14T10:36:55Z</time>
      </trkpt>
      <trkpt lat="44.33171" lon="4.62227">
        <ele>232</ele>
        <time>2013-07-14T10:37:26Z</time>
      </trkpt>
      <trkpt lat="44.33237" lon="4.62261">
        <ele>232</ele>
        <time>2013-07-14T10:37:45Z</time>
      </trkpt>
      <trkpt lat="44.33242" lon="4.62293">
        <ele>230</ele>
        <time>2013-07-14T10:37:50Z</time>
      </trkpt>
      <trkpt lat="44.33238" lon="4.62332">
        <ele>228</ele>
        <time>2013-07-14T10:37:57Z</time>
      </trkpt>
      <trkpt lat="44.33225" lon="4.62405">
        <ele>229</ele>
        <time>2013-07-14T10:38:16Z</time>
      </trkpt>
      <trkpt lat="44.33221" lon="4.62438">
        <ele>228</ele>
        <time>2013-07-14T10:38:24Z</time>
      </trkpt>
      <trkpt lat="44.33223" lon="4.62471">
        <ele>228</ele>
        <time>2013-07-14T10:38:32Z</time>
      </trkpt>
      <trkpt lat="44.33216" lon="4.62496">
        <ele>228</ele>
        <time>2013-07-14T10:38:40Z</time>
      </trkpt>
      <trkpt lat="44.33219" lon="4.62501">
        <ele>227</ele>
        <time>2013-07-14T10:38:45Z</time>
      </trkpt>
      <trkpt lat="44.33219" lon="4.62503">
        <ele>228</ele>
        <time>2013-07-14T10:38:52Z</time>
      </trkpt>
    </trkseg>
  </trk>
</gpx>